createdAt,value
2018-09-11T00:01:47.882Z,17.03
2018-09-11T00:07:52.569Z,16.90
2018-09-11T00:13:57.507Z,17.06
2018-09-11T00:20:02.229Z,16.96
2018-09-11T00:26:07.041Z,17.07
2018-09-11T00:32:12.423Z,17.10
2018-09-11T00:38:17.320Z,16.74
2018-09-11T00:44:22.093Z,16.73
2018-09-11T00:50:27.313Z,16.80
2018-09-11T00:56:32.089Z,16.73
2018-09-11T01:02:36.874Z,17.10
2018-09-11T01:08:41.896Z,16.93
2018-09-11T01:14:47.237Z,16.98
2018-09-11T01:20:52.283Z,17.10
2018-09-11T01:26:57.032Z,17.11
2018-09-11T01:33:01.863Z,17.12
2018-09-11T01:39:10.907Z,16.92
2018-09-11T01:45:15.994Z,17.01
2018-09-11T01:51:20.663Z,17.02
2018-09-11T01:57:25.435Z,17.12
2018-09-11T02:03:30.333Z,17.17
2018-09-11T02:09:35.118Z,17.06
2018-09-11T02:15:40.083Z,17.11
2018-09-11T02:21:45.218Z,17.10
2018-09-11T02:27:51.449Z,16.95
2018-09-11T02:33:56.331Z,17.26
2018-09-11T02:40:01.226Z,17.17
2018-09-11T02:46:06.105Z,16.98
2018-09-11T02:52:11.168Z,16.99
2018-09-11T02:58:16.196Z,17.05
2018-09-11T03:04:20.867Z,16.91
2018-09-11T03:10:25.541Z,16.93
2018-09-11T03:16:30.528Z,16.87
2018-09-11T03:22:35.299Z,17.03
2018-09-11T03:28:40.469Z,16.91
2018-09-11T03:34:45.301Z,16.95
2018-09-11T03:40:50.110Z,16.87
2018-09-11T03:46:54.860Z,16.86
2018-09-11T03:52:59.646Z,16.82
2018-09-11T03:59:04.386Z,16.83
2018-09-11T04:05:09.904Z,16.86
2018-09-11T04:11:14.874Z,16.84
2018-09-11T04:17:19.723Z,16.91
2018-09-11T04:23:24.616Z,16.81
2018-09-11T04:29:29.322Z,16.86
2018-09-11T04:35:34.071Z,16.60
2018-09-11T04:41:39.082Z,16.40
2018-09-11T04:47:43.988Z,16.34
2018-09-11T04:53:48.700Z,16.50
2018-09-11T04:59:53.545Z,16.71
2018-09-11T05:05:58.500Z,16.86
2018-09-11T05:12:03.281Z,16.69
2018-09-11T05:18:08.108Z,16.90
2018-09-11T05:24:13.488Z,16.73
2018-09-11T05:30:18.334Z,16.75
2018-09-11T05:36:23.172Z,16.74
2018-09-11T05:42:28.607Z,16.61
2018-09-11T05:48:33.419Z,16.63
2018-09-11T05:54:38.788Z,16.77
2018-09-11T06:00:43.753Z,16.86
2018-09-11T06:06:48.435Z,16.91
2018-09-11T06:12:53.168Z,16.99
2018-09-11T06:18:58.045Z,17.15
2018-09-11T06:25:02.953Z,17.48
2018-09-11T06:31:08.131Z,17.60
2018-09-11T06:37:13.068Z,17.96
2018-09-11T06:43:17.967Z,20.54
2018-09-11T06:49:22.719Z,25.00
2018-09-11T06:55:27.437Z,26.80
2018-09-11T07:01:32.158Z,28.21
2018-09-11T07:07:36.954Z,28.78
2018-09-11T07:13:41.872Z,27.80
2018-09-11T07:19:46.914Z,23.43
2018-09-11T07:25:51.675Z,21.48
2018-09-11T07:31:56.483Z,19.85
2018-09-11T07:38:01.216Z,19.61
2018-09-11T07:44:06.268Z,19.73
2018-09-11T07:50:12.627Z,19.17
2018-09-11T07:56:17.380Z,19.83
2018-09-11T08:02:22.200Z,20.25
2018-09-11T08:08:27.159Z,20.56
2018-09-11T08:14:31.853Z,20.85
2018-09-11T08:20:36.615Z,20.94
2018-09-11T08:26:41.346Z,21.09
2018-09-11T08:32:46.253Z,21.07
2018-09-11T08:38:51.103Z,21.51
2018-09-11T08:44:55.792Z,21.92
2018-09-11T08:51:00.502Z,22.43
2018-09-11T08:57:05.210Z,22.85
2018-09-11T09:03:09.997Z,23.08
2018-09-11T09:09:14.769Z,23.29
2018-09-11T09:15:19.548Z,23.29
2018-09-11T09:21:24.298Z,23.13
2018-09-11T09:27:29.461Z,23.88
2018-09-11T09:33:34.190Z,24.35
2018-09-11T09:39:39.066Z,25.38
2018-09-11T09:45:44.369Z,25.73
2018-09-11T09:51:49.063Z,25.99
2018-09-11T09:57:53.868Z,26.55
2018-09-11T10:03:58.678Z,27.52
2018-09-11T10:10:03.654Z,28.15
2018-09-11T10:16:08.358Z,27.67
2018-09-11T10:22:13.275Z,26.71
2018-09-11T10:28:18.172Z,27.37
2018-09-11T10:34:23.397Z,26.96
2018-09-11T10:40:28.217Z,26.79
2018-09-11T10:46:33.333Z,26.58
2018-09-11T10:52:38.274Z,26.50
2018-09-11T10:58:43.175Z,27.96
2018-09-11T11:04:48.536Z,28.30
2018-09-11T11:10:53.458Z,28.71
2018-09-11T11:16:58.433Z,29.48
2018-09-11T11:23:03.207Z,29.05
2018-09-11T11:29:08.475Z,29.64
2018-09-11T11:35:13.379Z,29.80
2018-09-11T11:41:18.699Z,29.78
2018-09-11T11:47:23.451Z,29.57
2018-09-11T11:53:28.322Z,29.90
2018-09-11T11:59:33.014Z,30.22
2018-09-11T12:05:37.909Z,29.96
2018-09-11T12:11:43.624Z,30.62
2018-09-11T12:17:48.637Z,31.05
2018-09-11T12:23:53.383Z,30.97
2018-09-11T12:29:58.500Z,30.43
2018-09-11T12:36:03.593Z,30.86
2018-09-11T12:42:08.488Z,30.82
2018-09-11T12:48:13.973Z,31.77
2018-09-11T12:54:18.765Z,31.63
2018-09-11T13:00:23.882Z,31.86
2018-09-11T13:06:28.655Z,32.48
2018-09-11T13:12:33.658Z,32.90
2018-09-11T13:18:39.550Z,32.53
2018-09-11T13:24:44.916Z,33.44
2018-09-11T13:30:49.725Z,33.98
2018-09-11T13:36:54.576Z,34.06
2018-09-11T13:42:59.431Z,33.61
2018-09-11T13:49:04.291Z,33.49
2018-09-11T13:55:09.215Z,33.91
2018-09-11T14:01:13.966Z,32.92
2018-09-11T14:07:19.127Z,32.99
2018-09-11T14:13:23.931Z,32.68
2018-09-11T14:19:28.711Z,32.43
2018-09-11T14:25:33.515Z,32.61
2018-09-11T14:31:38.345Z,32.93
2018-09-11T14:37:43.590Z,32.80
2018-09-11T14:43:48.676Z,33.15
2018-09-11T14:49:56.297Z,33.31
2018-09-11T14:56:01.288Z,32.05
2018-09-11T15:02:06.155Z,31.88
2018-09-11T15:08:11.039Z,31.67
2018-09-11T15:14:15.864Z,32.58
2018-09-11T15:20:20.792Z,32.86
2018-09-11T15:26:25.547Z,33.16
2018-09-11T15:32:30.331Z,32.97
2018-09-11T15:38:35.120Z,32.90
2018-09-11T15:44:39.941Z,32.73
2018-09-11T15:50:44.814Z,33.39
2018-09-11T15:56:49.794Z,32.83
2018-09-11T16:02:54.541Z,32.65
2018-09-11T16:08:59.442Z,32.64
2018-09-11T16:15:04.469Z,32.15
2018-09-11T16:21:09.369Z,32.22
2018-09-11T16:27:14.805Z,32.39
2018-09-11T16:33:19.896Z,30.98
2018-09-11T16:39:24.844Z,30.36
2018-09-11T16:45:29.553Z,30.54
2018-09-11T16:51:34.245Z,29.87
2018-09-11T16:57:39.080Z,30.06
2018-09-11T17:03:43.993Z,29.87
2018-09-11T17:09:48.705Z,29.22
2018-09-11T17:15:53.718Z,28.96
2018-09-11T17:21:58.452Z,28.36
2018-09-11T17:28:03.306Z,27.24
2018-09-11T17:34:08.474Z,26.76
2018-09-11T17:40:13.819Z,26.30
2018-09-11T17:46:18.599Z,25.87
2018-09-11T17:52:23.732Z,25.36
2018-09-11T17:58:28.697Z,24.99
2018-09-11T18:04:33.597Z,24.63
2018-09-11T18:10:38.406Z,24.28
2018-09-11T18:16:43.502Z,23.98
2018-09-11T18:22:49.291Z,23.64
2018-09-11T18:28:54.110Z,23.40
2018-09-11T18:34:58.925Z,23.27
2018-09-11T18:41:03.730Z,23.21
2018-09-11T18:47:08.563Z,23.19
2018-09-11T18:53:14.424Z,23.24
2018-09-11T18:59:19.555Z,23.33
2018-09-11T19:05:25.311Z,23.46
2018-09-11T19:11:30.078Z,23.39
2018-09-11T19:17:34.882Z,23.68
2018-09-11T19:23:39.796Z,23.64
2018-09-11T19:29:45.132Z,23.55
2018-09-11T19:35:49.901Z,23.58
2018-09-11T19:41:54.788Z,23.42
2018-09-11T19:47:59.577Z,23.36
2018-09-11T19:54:04.482Z,23.44
2018-09-11T20:00:09.626Z,23.21
2018-09-11T20:06:15.332Z,23.16
2018-09-11T20:12:20.619Z,22.90
2018-09-11T20:18:25.591Z,22.71
2018-09-11T20:24:30.649Z,22.43
2018-09-11T20:30:35.528Z,22.19
2018-09-11T20:36:41.627Z,21.98
2018-09-11T20:42:46.635Z,21.78
2018-09-11T20:48:51.448Z,21.50
2018-09-11T20:54:56.278Z,21.29
2018-09-11T21:01:01.472Z,20.98
2018-09-11T21:07:06.235Z,20.97
2018-09-11T21:13:11.376Z,20.83
2018-09-11T21:19:16.976Z,20.73
2018-09-11T21:25:21.847Z,20.58
2018-09-11T21:31:27.067Z,20.44
2018-09-11T21:37:31.959Z,20.51
2018-09-11T21:43:36.916Z,20.50
2018-09-11T21:49:41.945Z,20.26
2018-09-11T21:55:46.683Z,20.12
2018-09-11T22:01:52.874Z,20.10
2018-09-11T22:07:57.677Z,20.04
2018-09-11T22:14:02.534Z,19.96
2018-09-11T22:20:08.007Z,20.15
2018-09-11T22:26:15.387Z,19.96
2018-09-11T22:32:20.577Z,19.95
2018-09-11T22:38:25.486Z,19.75
2018-09-11T22:44:30.323Z,19.66
2018-09-11T22:50:35.366Z,19.52
2018-09-11T22:56:41.421Z,19.28
2018-09-11T23:02:46.528Z,19.18
2018-09-11T23:08:51.368Z,19.07
2018-09-11T23:14:56.323Z,18.84
2018-09-11T23:21:01.156Z,18.69
2018-09-11T23:27:06.034Z,18.72
2018-09-11T23:33:11.071Z,18.70
2018-09-11T23:39:16.186Z,18.49
2018-09-11T23:45:20.970Z,18.53
2018-09-11T23:51:26.105Z,18.66
2018-09-11T23:57:30.981Z,18.32
